Time,TemperatureF,DewpointF,PressureIn,WindDirection,WindDirectionDegrees,WindSpeedMPH,WindSpeedGustMPH,Humidity,HourlyPrecipIn,Conditions,Clouds,dailyrainin,SoftwareType,DateUTC
2013-04-01 08:08:00,17.7,11.9,30.32,WNW,293,4.1,4.1,78,0.00,,,0.00,WUHU216HW,2013-04-01 13:08:00,
2013-04-01 08:13:00,18.5,12.0,30.32,WNW,293,0.0,4.1,76,0.00,,,0.00,WUHU216HW,2013-04-01 13:13:00,
2013-04-01 08:18:00,20.4,12.5,30.32,WNW,293,2.1,4.1,71,0.00,,,0.00,WUHU216HW,2013-04-01 13:18:00,
2013-04-01 08:23:00,21.3,13.1,30.32,WNW,293,0.5,3.9,70,0.00,,,0.00,WUHU216HW,2013-04-01 13:23:00,
2013-04-01 08:28:00,22.1,13.1,30.32,West,270,3.3,5.3,68,0.00,,,0.00,WUHU216HW,2013-04-01 13:28:00,
2013-04-01 08:33:00,23.1,13.0,30.32,WNW,293,4.0,6.4,65,0.00,,,0.00,WUHU216HW,2013-04-01 13:33:00,
2013-04-01 08:38:00,23.5,13.0,30.32,WNW,293,3.3,6.4,64,0.00,,,0.00,WUHU216HW,2013-04-01 13:38:00,
2013-04-01 08:43:00,24.0,12.8,30.33,WNW,293,8.6,8.6,62,0.00,,,0.00,WUHU216HW,2013-04-01 13:43:00,
2013-04-01 08:48:00,24.4,12.9,30.33,West,270,4.1,8.6,61,0.00,,,0.00,WUHU216HW,2013-04-01 13:48:00,
2013-04-01 08:53:00,24.0,12.2,30.33,WNW,293,8.0,8.4,60,0.00,,,0.00,WUHU216HW,2013-04-01 13:53:00,
2013-04-01 08:58:00,24.0,12.2,30.33,West,270,5.8,8.6,60,0.00,,,0.00,WUHU216HW,2013-04-01 13:58:00,
2013-04-01 09:03:00,24.6,13.4,30.33,WNW,293,1.9,9.5,62,0.00,,,0.00,WUHU216HW,2013-04-01 14:03:00,
2013-04-01 09:08:00,25.7,14.0,30.33,West,270,3.6,9.5,61,0.00,,,0.00,WUHU216HW,2013-04-01 14:08:00,
2013-04-01 09:13:00,26.2,14.2,30.33,West,270,4.4,6.6,60,0.00,,,0.00,WUHU216HW,2013-04-01 14:13:00,
2013-04-01 09:18:00,27.1,13.8,30.33,West,281,7.6,8.0,57,0.00,,,0.00,WUHU216HW,2013-04-01 14:18:00,
2013-04-01 09:23:00,27.1,13.4,30.33,WNW,293,3.6,8.6,56,0.00,,,0.00,WUHU216HW,2013-04-01 14:23:00,
2013-04-01 09:28:00,26.9,13.2,30.34,WNW,293,6.6,10.3,56,0.00,,,0.00,WUHU216HW,2013-04-01 14:28:00,
2013-04-01 09:33:00,27.1,13.8,30.33,West,270,4.1,10.3,57,0.00,,,0.00,WUHU216HW,2013-04-01 14:33:00,
2013-04-01 09:38:00,27.3,13.6,30.33,West,270,5.5,9.5,56,0.00,,,0.00,WUHU216HW,2013-04-01 14:38:00,
2013-04-01 09:43:00,27.6,13.5,30.33,WNW,293,5.5,9.5,55,0.00,,,0.00,WUHU216HW,2013-04-01 14:43:00,
2013-04-01 09:48:00,28.0,13.4,30.34,WNW,293,8.4,8.4,54,0.00,,,0.00,WUHU216HW,2013-04-01 14:48:00,
2013-04-01 09:53:00,28.2,13.6,30.34,WNW,293,11.1,11.1,54,0.00,,,0.00,WUHU216HW,2013-04-01 14:53:00,
2013-04-01 09:58:00,28.2,13.6,30.33,WNW,293,8.6,11.1,54,0.00,,,0.00,WUHU216HW,2013-04-01 14:58:00,
2013-04-01 10:03:00,28.5,14.4,30.34,West,270,7.5,9.8,55,0.00,,,0.00,WUHU216HW,2013-04-01 15:03:00,
2013-04-01 10:08:00,29.1,14.5,30.34,WNW,293,8.4,9.8,54,0.00,,,0.00,WUHU216HW,2013-04-01 15:08:00,
2013-04-01 10:13:00,29.6,14.9,30.34,West,270,6.9,10.0,54,0.00,,,0.00,WUHU216HW,2013-04-01 15:13:00,
2013-04-01 10:18:00,30.0,14.9,30.34,WNW,293,7.5,10.0,53,0.00,,,0.00,WUHU216HW,2013-04-01 15:18:00,
2013-04-01 10:23:00,30.0,15.3,30.34,WNW,293,4.4,8.6,54,0.00,,,0.00,WUHU216HW,2013-04-01 15:23:00,
2013-04-01 10:28:00,30.7,15.5,30.34,WNW,293,13.1,13.1,53,0.00,,,0.00,WUHU216HW,2013-04-01 15:28:00,
2013-04-01 10:33:00,31.6,15.5,30.34,West,270,6.7,13.1,51,0.00,,,0.00,WUHU216HW,2013-04-01 15:33:00,
2013-04-01 10:38:00,31.6,15.9,30.34,WNW,293,11.6,11.6,52,0.00,,,0.00,WUHU216HW,2013-04-01 15:38:00,
2013-04-01 10:43:00,31.2,15.6,30.34,WNW,293,10.0,11.6,52,0.00,,,0.00,WUHU216HW,2013-04-01 15:43:00,
2013-04-01 10:48:00,31.6,15.9,30.34,West,281,5.4,10.0,52,0.00,,,0.00,WUHU216HW,2013-04-01 15:48:00,
2013-04-01 10:53:00,31.8,16.1,30.34,WNW,293,7.3,10.6,52,0.00,,,0.00,WUHU216HW,2013-04-01 15:53:00,
2013-04-01 10:58:00,31.6,15.5,30.34,WNW,293,8.9,10.6,51,0.00,,,0.00,WUHU216HW,2013-04-01 15:58:00,
2013-04-01 11:03:00,31.4,15.3,30.34,WNW,293,11.4,11.4,51,0.00,,,0.00,WUHU216HW,2013-04-01 16:03:00,
2013-04-01 11:08:00,31.2,15.6,30.34,WNW,293,8.6,11.4,52,0.00,,,0.00,WUHU216HW,2013-04-01 16:08:00,
2013-04-01 11:13:00,31.2,15.6,30.34,WNW,293,9.1,11.6,52,0.00,,,0.00,WUHU216HW,2013-04-01 16:13:00,
2013-04-01 11:18:00,31.6,15.9,30.34,WNW,293,7.6,11.6,52,0.00,,,0.00,WUHU216HW,2013-04-01 16:18:00,
2013-04-01 11:23:00,31.8,16.5,30.34,West,270,7.3,9.8,53,0.00,,,0.00,WUHU216HW,2013-04-01 16:23:00,
2013-04-01 11:28:00,32.1,16.4,30.34,WNW,293,7.8,9.8,52,0.00,,,0.00,WUHU216HW,2013-04-01 16:28:00,
2013-04-01 11:33:00,32.1,16.0,30.34,WNW,293,13.1,13.9,51,0.00,,,0.00,WUHU216HW,2013-04-01 16:33:00,
2013-04-01 11:38:00,32.1,16.0,30.34,WNW,293,9.1,13.9,51,0.00,,,0.00,WUHU216HW,2013-04-01 16:38:00,
2013-04-01 11:43:00,32.0,15.8,30.34,WNW,293,11.1,13.1,51,0.00,,,0.00,WUHU216HW,2013-04-01 16:43:00,
2013-04-01 11:48:00,31.6,15.9,30.34,WNW,293,13.6,13.6,52,0.00,,,0.00,WUHU216HW,2013-04-01 16:48:00,
2013-04-01 11:53:00,31.1,15.0,30.34,NW,315,10.0,13.6,51,0.00,,,0.00,WUHU216HW,2013-04-01 16:53:00,
2013-04-01 11:58:00,30.7,15.9,30.34,WNW,293,12.8,13.6,54,0.00,,,0.00,WUHU216HW,2013-04-01 16:58:00,
2013-04-01 12:03:00,31.2,15.6,30.35,WNW,293,7.8,12.8,52,0.00,,,0.00,WUHU216HW,2013-04-01 17:03:00,
2013-04-01 12:08:00,30.9,15.7,30.35,WNW,293,9.8,11.1,53,0.00,,,0.00,WUHU216HW,2013-04-01 17:08:00,
2013-04-01 12:13:00,30.7,15.5,30.35,NW,315,13.4,16.4,53,0.00,,,0.00,WUHU216HW,2013-04-01 17:13:00,
2013-04-01 12:18:00,30.5,15.8,30.35,NNW,338,10.3,16.4,54,0.00,,,0.00,WUHU216HW,2013-04-01 17:18:00,
2013-04-01 12:23:00,30.3,14.8,30.35,NW,315,11.4,11.6,52,0.00,,,0.00,WUHU216HW,2013-04-01 17:23:00,
2013-04-01 12:28:00,30.2,15.0,30.35,NW,315,11.4,11.6,53,0.00,,,0.00,WUHU216HW,2013-04-01 17:28:00,
2013-04-01 12:33:00,30.3,14.8,30.35,NW,315,11.9,14.8,53,0.00,,,0.00,WUHU216HW,2013-04-01 17:33:00,
2013-04-01 12:38:00,30.3,15.2,30.35,NW,315,12.3,14.8,53,0.00,,,0.00,WUHU216HW,2013-04-01 17:38:00,
2013-04-01 12:43:00,30.0,15.3,30.35,WNW,293,8.9,12.3,54,0.00,,,0.00,WUHU216HW,2013-04-01 17:43:00,
2013-04-01 12:49:00,29.8,15.5,30.35,WNW,293,13.6,13.6,55,0.00,,,0.00,WUHU216HW,2013-04-01 17:49:00,
2013-04-01 12:54:00,29.1,14.9,30.35,NW,319,11.9,13.6,55,0.00,,,0.00,WUHU216HW,2013-04-01 17:54:00,
2013-04-01 12:59:00,28.5,14.8,30.35,WNW,298,9.4,12.8,56,0.00,,,0.00,WUHU216HW,2013-04-01 17:59:00,
2013-04-01 13:04:00,28.2,14.9,30.35,WNW,293,8.9,11.6,57,0.00,,,0.00,WUHU216HW,2013-04-01 18:04:00,
2013-04-01 13:09:00,28.0,14.7,30.34,WNW,293,15.9,15.9,57,0.00,,,0.00,WUHU216HW,2013-04-01 18:09:00,
2013-04-01 13:14:00,27.6,14.3,30.34,NW,315,11.1,15.9,57,0.00,,,0.00,WUHU216HW,2013-04-01 18:14:00,
2013-04-01 13:19:00,27.5,14.6,30.34,WNW,293,10.3,17.9,58,0.00,,,0.00,WUHU216HW,2013-04-01 18:19:00,
2013-04-01 13:24:00,27.6,15.2,30.34,WNW,293,10.9,17.9,59,0.00,,,0.00,WUHU216HW,2013-04-01 18:24:00,
2013-04-01 13:29:00,28.0,15.9,30.35,WNW,293,15.6,15.6,60,0.00,,,0.00,WUHU216HW,2013-04-01 18:29:00,
2013-04-01 13:34:00,28.2,15.7,30.34,WNW,293,7.5,15.6,59,0.00,,,0.00,WUHU216HW,2013-04-01 18:34:00,
2013-04-01 13:39:00,28.2,15.3,30.34,WNW,293,13.5,15.6,58,0.00,,,0.00,WUHU216HW,2013-04-01 18:39:00,
2013-04-01 13:44:00,28.5,16.0,30.34,WNW,293,12.0,15.4,59,0.00,,,0.00,WUHU216HW,2013-04-01 18:44:00,
2013-04-01 13:49:00,28.5,15.2,30.34,WNW,293,8.9,14.8,57,0.00,,,0.00,WUHU216HW,2013-04-01 18:49:00,
2013-04-01 13:54:00,28.7,16.2,30.34,WNW,293,14.4,17.5,59,0.00,,,0.00,WUHU216HW,2013-04-01 18:54:00,
2013-04-01 13:59:00,28.7,16.6,30.34,WNW,293,12.3,17.5,60,0.00,,,0.00,WUHU216HW,2013-04-01 18:59:00,
2013-04-01 14:04:00,29.1,16.9,30.34,West,270,8.6,14.8,60,0.00,,,0.00,WUHU216HW,2013-04-01 19:04:00,
2013-04-01 14:09:00,29.1,16.5,30.34,WNW,293,12.3,18.6,59,0.00,,,0.00,WUHU216HW,2013-04-01 19:09:00,
2013-04-01 14:14:00,29.1,15.7,30.34,NNW,328,10.0,18.6,57,0.00,,,0.00,WUHU216HW,2013-04-01 19:14:00,
2013-04-01 14:19:00,29.3,15.9,30.34,NW,315,11.1,12.3,57,0.00,,,0.00,WUHU216HW,2013-04-01 19:19:00,
2013-04-01 14:24:00,29.3,15.9,30.34,WNW,293,8.0,13.9,57,0.00,,,0.00,WUHU216HW,2013-04-01 19:24:00,
2013-04-01 14:29:00,29.4,15.6,30.34,WNW,293,12.4,16.8,56,0.00,,,0.00,WUHU216HW,2013-04-01 19:29:00,
2013-04-01 14:34:00,29.8,16.3,30.34,NW,315,11.4,16.8,57,0.00,,,0.00,WUHU216HW,2013-04-01 19:34:00,
2013-04-01 14:39:00,30.2,16.3,30.33,WNW,293,12.3,13.1,56,0.00,,,0.00,WUHU216HW,2013-04-01 19:39:00,
2013-04-01 14:44:00,30.2,15.4,30.33,NW,315,12.0,13.1,54,0.00,,,0.00,WUHU216HW,2013-04-01 19:44:00,
2013-04-01 14:49:00,30.2,15.8,30.33,NNW,338,12.5,12.5,55,0.00,,,0.00,WUHU216HW,2013-04-01 19:49:00,
2013-04-01 14:54:00,30.2,15.4,30.33,WNW,293,8.4,12.5,54,0.00,,,0.00,WUHU216HW,2013-04-01 19:54:00,
2013-04-01 14:59:00,30.3,16.0,30.33,NW,315,11.1,11.1,55,0.00,,,0.00,WUHU216HW,2013-04-01 19:59:00,
2013-04-01 15:04:00,30.0,15.7,30.33,West,270,8.9,11.1,55,0.00,,,0.00,WUHU216HW,2013-04-01 20:04:00,
2013-04-01 15:09:00,30.0,15.7,30.33,NNW,338,11.1,12.5,55,0.00,,,0.00,WUHU216HW,2013-04-01 20:09:00,
2013-04-01 15:14:00,29.6,15.4,30.33,NW,315,10.4,12.5,55,0.00,,,0.00,WUHU216HW,2013-04-01 20:14:00,
2013-04-01 15:19:00,29.8,15.9,30.34,NNW,338,5.5,11.1,56,0.00,,,0.00,WUHU216HW,2013-04-01 20:19:00,
2013-04-01 15:24:00,29.8,15.9,30.34,WNW,293,12.8,12.8,56,0.00,,,0.00,WUHU216HW,2013-04-01 20:24:00,
2013-04-01 15:29:00,29.4,15.6,30.34,WNW,293,11.6,12.8,56,0.00,,,0.00,WUHU216HW,2013-04-01 20:29:00,
2013-04-01 15:34:00,29.4,16.0,30.33,NW,315,17.5,17.5,57,0.00,,,0.00,WUHU216HW,2013-04-01 20:34:00,
2013-04-01 15:39:00,29.3,15.4,30.34,NNW,338,8.9,17.5,56,0.00,,,0.00,WUHU216HW,2013-04-01 20:39:00,
2013-04-01 15:44:00,29.1,15.7,30.33,NNW,338,11.6,14.8,57,0.00,,,0.00,WUHU216HW,2013-04-01 20:44:00,
2013-04-01 15:49:00,29.1,15.3,30.33,WNW,293,16.8,16.8,56,0.00,,,0.00,WUHU216HW,2013-04-01 20:49:00,
2013-04-01 15:54:00,28.5,15.2,30.33,NNW,338,11.6,16.8,57,0.00,,,0.00,WUHU216HW,2013-04-01 20:54:00,
2013-04-01 15:59:00,28.5,14.8,30.33,WNW,293,13.1,14.8,56,0.00,,,0.00,WUHU216HW,2013-04-01 20:59:00,
2013-04-01 16:04:00,28.5,15.6,30.33,NNW,338,7.3,13.1,58,0.00,,,0.00,WUHU216HW,2013-04-01 21:04:00,
2013-04-01 16:09:00,28.5,15.2,30.33,NW,305,8.9,13.1,57,0.00,,,0.00,WUHU216HW,2013-04-01 21:09:00,
2013-04-01 16:14:00,28.2,15.7,30.33,WNW,293,10.9,12.3,59,0.00,,,0.00,WUHU216HW,2013-04-01 21:14:00,
2013-04-01 16:19:00,28.5,16.0,30.33,WNW,293,13.6,13.6,59,0.00,,,0.00,WUHU216HW,2013-04-01 21:19:00,
2013-04-01 16:24:00,28.5,15.6,30.32,NW,315,12.0,13.6,58,0.00,,,0.00,WUHU216HW,2013-04-01 21:24:00,
2013-04-01 16:29:00,28.2,15.3,30.32,NNW,338,5.5,12.0,58,0.00,,,0.00,WUHU216HW,2013-04-01 21:29:00,
2013-04-01 16:34:00,28.2,15.7,30.32,NNW,338,7.5,12.0,59,0.00,,,0.00,WUHU216HW,2013-04-01 21:34:00,
2013-04-01 16:39:00,28.2,15.7,30.32,NNW,338,7.5,7.5,59,0.00,,,0.00,WUHU216HW,2013-04-01 21:39:00,
2013-04-01 16:44:00,28.2,15.7,30.32,NNW,338,7.5,7.5,59,0.00,,,0.00,WUHU216HW,2013-04-01 21:44:00,
2013-04-01 16:49:00,28.2,15.7,30.32,NNW,338,7.5,7.5,59,0.00,,,0.00,WUHU216HW,2013-04-01 21:49:00,
2013-04-01 17:29:00,0.0,0.0,30.32,WNW,293,7.3,7.3,58,0.00,,,0.00,WUHU216HW,2013-04-01 22:29:00,
2013-04-01 17:34:00,0.0,-11.3,30.32,WNW,293,7.8,9.1,58,0.00,,,0.00,WUHU216HW,2013-04-01 22:34:00,
2013-04-01 17:39:00,0.0,-11.3,30.32,NNW,338,8.4,9.1,58,0.00,,,0.00,WUHU216HW,2013-04-01 22:39:00,
2013-04-01 17:44:00,27.6,14.7,30.32,WNW,293,5.5,8.4,58,0.00,,,0.00,WUHU216HW,2013-04-01 22:44:00,
2013-04-01 17:49:00,27.6,14.7,30.32,WNW,293,5.5,8.4,58,0.00,,,0.00,WUHU216HW,2013-04-01 22:49:00,
2013-04-01 17:54:00,27.6,14.7,30.31,WNW,293,5.5,5.5,58,0.00,,,0.00,WUHU216HW,2013-04-01 22:54:00,
2013-04-01 17:59:00,27.6,14.7,30.32,WNW,293,5.5,5.5,58,0.00,,,0.00,WUHU216HW,2013-04-01 22:59:00,
2013-04-01 18:04:00,27.6,14.7,30.32,WNW,293,5.5,5.5,58,0.00,,,0.00,WUHU216HW,2013-04-01 23:04:00,
2013-04-01 18:33:00,27.6,14.7,30.31,NW,315,6.6,6.6,58,0.00,,,0.00,WUHU216HW,2013-04-01 23:33:00,
2013-04-01 18:38:00,27.6,15.2,30.32,North,0,5.3,6.6,59,0.00,,,0.00,WUHU216HW,2013-04-01 23:38:00,
2013-04-01 18:43:00,28.0,14.9,30.31,NW,315,7.8,8.4,59,0.00,,,0.00,WUHU216HW,2013-04-01 23:43:00,
2013-04-01 18:48:00,27.6,14.7,30.31,NW,315,1.6,8.4,58,0.00,,,0.00,WUHU216HW,2013-04-01 23:48:00,
2013-04-01 18:53:00,28.0,15.1,30.31,WNW,293,3.3,7.5,58,0.00,,,0.00,WUHU216HW,2013-04-01 23:53:00,
2013-04-01 18:58:00,27.6,14.7,30.31,NNW,338,4.8,7.5,58,0.00,,,0.00,WUHU216HW,2013-04-01 23:58:00,
2013-04-01 19:03:00,27.6,14.7,30.31,NNW,338,4.7,5.8,58,0.00,,,0.00,WUHU216HW,2013-04-02 00:03:00,
2013-04-01 19:08:00,27.3,14.8,30.30,NNW,338,0.0,8.0,59,0.00,,,0.00,WUHU216HW,2013-04-02 00:08:00,
2013-04-01 19:13:00,27.5,15.0,30.30,NNW,338,2.5,8.0,59,0.00,,,0.00,WUHU216HW,2013-04-02 00:13:00,
2013-04-01 19:18:00,27.3,14.8,30.30,NNW,338,3.3,3.9,59,0.00,,,0.00,WUHU216HW,2013-04-02 00:18:00,
2013-04-01 19:23:00,26.9,14.4,30.30,North,0,2.8,3.3,59,0.00,,,0.00,WUHU216HW,2013-04-02 00:23:00,
2013-04-01 19:28:00,26.4,14.7,30.30,NNW,338,5.8,5.8,60,0.00,,,0.00,WUHU216HW,2013-04-02 00:28:00,
2013-04-01 19:33:00,26.0,14.3,30.30,NNW,338,1.4,5.8,61,0.00,,,0.00,WUHU216HW,2013-04-02 00:33:00,
2013-04-01 19:38:00,25.8,14.2,30.30,NNW,338,0.0,1.4,61,0.00,,,0.00,WUHU216HW,2013-04-02 00:38:00,
2013-04-01 19:43:00,25.1,13.5,30.30,NNW,338,0.0,1.4,61,0.00,,,0.00,WUHU216HW,2013-04-02 00:43:00,
2013-04-01 19:48:00,24.4,13.2,30.30,NNW,338,0.0,0.0,62,0.00,,,0.00,WUHU216HW,2013-04-02 00:48:00,
2013-04-01 19:53:00,23.5,12.7,30.30,NNW,338,0.0,0.0,63,0.00,,,0.00,WUHU216HW,2013-04-02 00:53:00,
2013-04-01 19:58:00,23.1,12.7,30.30,NNW,338,0.0,0.0,64,0.00,,,0.00,WUHU216HW,2013-04-02 00:58:00,
2013-04-01 20:03:00,21.5,11.5,30.30,NNW,338,0.0,0.0,65,0.00,,,0.00,WUHU216HW,2013-04-02 01:03:00,
2013-04-01 20:08:00,20.8,10.8,30.30,NNW,338,0.0,0.0,65,0.00,,,0.00,WUHU216HW,2013-04-02 01:08:00,
2013-04-01 20:13:00,19.5,10.2,30.30,NNW,338,0.0,0.0,67,0.00,,,0.00,WUHU216HW,2013-04-02 01:13:00,
2013-04-01 20:18:00,19.2,9.9,30.30,NNW,338,0.0,0.0,67,0.00,,,0.00,WUHU216HW,2013-04-02 01:18:00,
2013-04-01 20:23:00,18.5,9.6,30.30,NNW,338,0.0,0.0,68,0.00,,,0.00,WUHU216HW,2013-04-02 01:23:00,
2013-04-01 20:28:00,18.3,9.8,30.29,NNW,338,0.0,0.0,70,0.00,,,0.00,WUHU216HW,2013-04-02 01:28:00,
2013-04-01 20:33:00,18.3,10.1,30.29,NNW,338,0.0,0.0,70,0.00,,,0.00,WUHU216HW,2013-04-02 01:33:00,
2013-04-01 20:38:00,18.3,10.1,30.30,NNW,338,0.0,0.0,70,0.00,,,0.00,WUHU216HW,2013-04-02 01:38:00,
2013-04-01 20:43:00,18.3,10.1,30.30,NNW,338,0.0,0.0,70,0.00,,,0.00,WUHU216HW,2013-04-02 01:43:00,
2013-04-01 20:48:00,18.3,10.1,30.30,NNW,338,0.0,0.0,70,0.00,,,0.00,WUHU216HW,2013-04-02 01:48:00,
2013-04-01 20:53:00,18.3,10.7,30.30,NNW,338,0.0,0.0,72,0.00,,,0.00,WUHU216HW,2013-04-02 01:53:00,
2013-04-01 20:58:00,16.7,8.8,30.30,West,270,0.0,0.0,71,0.00,,,0.00,WUHU216HW,2013-04-02 01:58:00,
2013-04-01 21:03:00,16.3,8.8,30.30,West,270,0.0,0.0,72,0.00,,,0.00,WUHU216HW,2013-04-02 02:03:00,
2013-04-01 21:08:00,16.1,8.6,30.30,West,270,0.0,0.0,72,0.00,,,0.00,WUHU216HW,2013-04-02 02:08:00,
2013-04-01 21:13:00,15.8,8.1,30.31,WSW,248,0.0,0.0,72,0.00,,,0.00,WUHU216HW,2013-04-02 02:13:00,
2013-04-01 21:18:00,15.6,8.4,30.31,WSW,248,0.0,0.0,73,0.00,,,0.00,WUHU216HW,2013-04-02 02:18:00,
2013-04-01 21:23:00,15.6,8.4,30.31,WSW,248,0.0,0.0,73,0.00,,,0.00,WUHU216HW,2013-04-02 02:23:00,
2013-04-01 21:28:00,15.6,8.7,30.31,WSW,248,0.0,0.0,74,0.00,,,0.00,WUHU216HW,2013-04-02 02:28:00,
2013-04-01 21:33:00,15.4,8.5,30.31,WSW,248,0.0,0.0,74,0.00,,,0.00,WUHU216HW,2013-04-02 02:33:00,
2013-04-01 21:38:00,15.6,8.7,30.31,SW,225,0.0,0.0,74,0.00,,,0.00,WUHU216HW,2013-04-02 02:38:00,
2013-04-01 21:43:00,15.6,8.7,30.31,SW,225,0.0,0.0,74,0.00,,,0.00,WUHU216HW,2013-04-02 02:43:00,
2013-04-01 21:48:00,15.8,8.9,30.31,SW,225,0.0,0.0,74,0.00,,,0.00,WUHU216HW,2013-04-02 02:48:00,
2013-04-01 21:53:00,15.6,8.7,30.31,SW,225,0.0,0.0,74,0.00,,,0.00,WUHU216HW,2013-04-02 02:53:00,
2013-04-01 21:58:00,14.9,7.7,30.31,SW,225,0.0,0.0,73,0.00,,,0.00,WUHU216HW,2013-04-02 02:58:00,
2013-04-01 22:03:00,14.7,7.8,30.31,SW,225,0.0,0.0,74,0.00,,,0.00,WUHU216HW,2013-04-02 03:03:00,
2013-04-01 22:08:00,14.5,8.0,30.31,SW,225,0.0,0.0,75,0.00,,,0.00,WUHU216HW,2013-04-02 03:08:00,
2013-04-01 22:13:00,14.7,8.6,30.31,WSW,248,1.6,1.6,76,0.00,,,0.00,WUHU216HW,2013-04-02 03:13:00,
2013-04-01 22:18:00,15.0,8.8,30.31,SW,225,1.9,1.9,76,0.00,,,0.00,WUHU216HW,2013-04-02 03:18:00,
2013-04-01 22:23:00,15.4,9.1,30.31,SW,225,0.0,1.9,76,0.00,,,0.00,WUHU216HW,2013-04-02 03:23:00,
2013-04-01 22:28:00,15.4,9.1,30.31,SW,225,0.0,1.9,76,0.00,,,0.00,WUHU216HW,2013-04-02 03:28:00,
2013-04-01 22:33:00,15.6,9.6,30.31,SW,225,0.0,0.0,77,0.00,,,0.00,WUHU216HW,2013-04-02 03:33:00,
2013-04-01 22:38:00,15.4,9.1,30.31,SW,225,1.9,1.9,76,0.00,,,0.00,WUHU216HW,2013-04-02 03:38:00,
2013-04-01 22:43:00,15.4,9.1,30.30,SW,225,0.0,1.9,76,0.00,,,0.00,WUHU216HW,2013-04-02 03:43:00,
2013-04-01 22:48:00,15.4,9.1,30.31,SW,225,0.8,0.8,76,0.00,,,0.00,WUHU216HW,2013-04-02 03:48:00,
2013-04-01 22:53:00,15.2,9.0,30.30,SW,225,0.0,0.8,76,0.00,,,0.00,WUHU216HW,2013-04-02 03:53:00,
2013-04-01 22:58:00,14.9,8.6,30.30,SW,225,0.0,0.8,76,0.00,,,0.00,WUHU216HW,2013-04-02 03:58:00,
2013-04-01 23:00:00,14.7,8.4,30.31,SW,225,0.0,0.0,76,0.00,,,0.00,WUHU216HW,2013-04-02 04:00:00,
2013-04-01 23:05:00,14.3,8.1,30.30,SW,225,0.0,0.0,76,0.00,,,0.00,WUHU216HW,2013-04-02 04:05:00,
2013-04-01 23:10:00,13.8,7.6,30.30,SW,225,0.0,0.0,76,0.00,,,0.00,WUHU216HW,2013-04-02 04:10:00,
2013-04-01 23:15:00,13.2,7.4,30.30,SW,225,0.0,0.0,76,0.00,,,0.00,WUHU216HW,2013-04-02 04:15:00,
2013-04-01 23:20:00,13.1,6.6,30.30,SW,225,0.0,0.0,75,0.00,,,0.00,WUHU216HW,2013-04-02 04:20:00,
2013-04-01 23:25:00,12.9,6.7,30.30,SW,225,0.0,0.0,76,0.00,,,0.00,WUHU216HW,2013-04-02 04:25:00,
2013-04-01 23:30:00,12.9,6.7,30.30,SW,225,0.0,1.0,76,0.00,,,0.00,WUHU216HW,2013-04-02 04:30:00,
2013-04-01 23:35:00,13.2,7.3,30.29,SW,225,0.0,1.0,77,0.00,,,0.00,WUHU216HW,2013-04-02 04:35:00,
2013-04-01 23:40:00,13.8,8.2,30.30,SW,225,0.0,0.0,78,0.00,,,0.00,WUHU216HW,2013-04-02 04:40:00,
2013-04-01 23:45:00,13.8,8.2,30.29,SW,225,0.0,0.0,78,0.00,,,0.00,WUHU216HW,2013-04-02 04:45:00,
2013-04-01 23:50:00,14.1,8.5,30.29,SW,225,0.5,0.5,78,0.00,,,0.00,WUHU216HW,2013-04-02 04:50:00,
2013-04-01 23:55:00,14.1,8.5,30.29,SW,225,0.0,0.5,78,0.00,,,0.00,WUHU216HW,2013-04-02 04:55:00,